createdAt,value
2023-03-19T19:03:29.752Z,84.00
2023-03-19T19:05:56.828Z,96.50
2023-03-19T19:08:25.632Z,98.90
2023-03-19T19:10:59.050Z,106.70
2023-03-19T19:13:30.570Z,103.60
2023-03-19T19:15:57.815Z,131.30
2023-03-19T19:18:30.024Z,108.00
2023-03-19T19:21:00.265Z,101.80
2023-03-19T19:23:27.754Z,97.40
2023-03-19T19:25:56.412Z,95.10
2023-03-19T19:28:30.850Z,108.40
2023-03-19T19:30:59.927Z,111.20
2023-03-19T19:33:31.962Z,105.40
2023-03-19T19:35:59.288Z,104.40
2023-03-19T19:38:26.763Z,103.50
2023-03-19T19:40:56.746Z,91.20
2023-03-19T19:45:54.870Z,81.90
2023-03-19T19:50:55.383Z,73.50
2023-03-19T19:53:25.444Z,73.30
2023-03-19T19:55:53.357Z,73.30
2023-03-19T19:58:27.350Z,70.30
2023-03-19T20:01:03.338Z,73.00
2023-03-19T20:03:33.302Z,68.80
2023-03-19T20:06:01.681Z,70.40
2023-03-19T20:08:29.078Z,68.70
2023-03-19T20:10:57.227Z,69.00
2023-03-19T20:13:29.268Z,76.00
2023-03-19T20:15:58.883Z,77.50
2023-03-19T20:18:32.269Z,75.20
2023-03-19T20:20:59.789Z,70.80
2023-03-19T20:23:27.083Z,61.50
2023-03-19T20:25:55.392Z,62.90
2023-03-19T20:28:32.601Z,60.00
2023-03-19T20:31:01.354Z,63.10
2023-03-19T20:33:31.559Z,59.50
2023-03-19T20:35:58.948Z,55.80
2023-03-19T20:38:27.650Z,61.30
2023-03-19T20:40:57.207Z,65.10
2023-03-19T20:43:33.973Z,61.50
2023-03-19T20:46:04.592Z,60.80
2023-03-19T20:48:33.023Z,61.70
2023-03-19T20:51:01.672Z,58.50
2023-03-19T20:53:29.155Z,58.70
2023-03-19T20:55:56.765Z,54.50
2023-03-19T20:58:34.762Z,49.40
2023-03-19T21:01:03.136Z,49.40
2023-03-19T21:03:32.771Z,51.00
2023-03-19T21:06:07.621Z,51.70
2023-03-19T21:08:39.364Z,55.80
2023-03-19T21:11:11.678Z,53.30
2023-03-19T21:13:38.647Z,55.60
2023-03-19T21:16:06.046Z,55.50
2023-03-19T21:18:32.914Z,56.30
2023-03-19T21:21:00.151Z,53.30
2023-03-19T21:23:35.006Z,53.00
2023-03-19T21:26:17.119Z,53.00
2023-03-19T21:28:46.850Z,52.00
2023-03-19T21:31:18.919Z,49.80
2023-03-19T21:33:47.821Z,53.80
2023-03-19T21:36:16.018Z,49.20
2023-03-19T21:38:43.519Z,50.90
2023-03-19T21:41:26.682Z,46.60
2023-03-19T21:43:57.561Z,47.30
2023-03-19T21:46:27.975Z,48.70
2023-03-19T21:48:56.476Z,48.70
2023-03-19T21:51:25.490Z,53.70
2023-03-19T21:53:52.857Z,59.70
2023-03-19T21:56:25.934Z,61.30
2023-03-19T21:58:54.314Z,60.70
2023-03-19T22:01:24.954Z,57.30
2023-03-19T22:03:53.587Z,53.20
2023-03-19T22:06:22.394Z,52.50
2023-03-19T22:08:51.374Z,54.90
2023-03-19T22:11:27.024Z,51.00
2023-03-19T22:13:56.086Z,49.90
2023-03-19T22:16:25.140Z,48.40
2023-03-19T22:18:53.611Z,45.90
2023-03-19T22:21:22.749Z,46.50
2023-03-19T22:23:51.602Z,44.90
2023-03-19T22:26:28.824Z,48.60
2023-03-19T22:28:58.893Z,49.10
2023-03-19T22:31:26.586Z,45.80
2023-03-19T22:33:54.205Z,44.50
2023-03-19T22:36:21.384Z,46.20
2023-03-19T22:38:55.056Z,43.50
2023-03-19T22:41:34.389Z,39.90
2023-03-19T22:44:04.936Z,42.30
2023-03-19T22:46:33.093Z,45.00
2023-03-19T22:49:00.101Z,44.90
2023-03-19T22:51:28.168Z,46.00
2023-03-19T22:53:56.133Z,46.30
2023-03-19T22:56:23.522Z,46.70
2023-03-19T22:58:50.864Z,45.60
2023-03-19T23:01:21.478Z,45.20
2023-03-19T23:03:50.054Z,48.70
2023-03-19T23:06:29.749Z,47.40
2023-03-19T23:08:58.539Z,45.60
2023-03-19T23:11:25.719Z,45.30
2023-03-19T23:13:54.649Z,42.90
2023-03-19T23:16:25.331Z,43.80
2023-03-19T23:21:21.573Z,47.10
2023-03-19T23:23:48.926Z,44.10
2023-03-19T23:26:33.634Z,43.60
2023-03-19T23:29:06.653Z,45.30
2023-03-19T23:31:34.554Z,43.60
2023-03-19T23:34:01.726Z,44.60
2023-03-19T23:36:28.626Z,46.20
2023-03-19T23:38:56.659Z,47.60
2023-03-19T23:41:26.838Z,45.90
2023-03-19T23:43:54.998Z,47.50
2023-03-19T23:46:22.414Z,49.00
2023-03-19T23:48:49.412Z,46.40
2023-03-19T23:51:17.162Z,47.10
2023-03-19T23:53:44.642Z,43.40
2023-03-19T23:56:17.235Z,43.80
2023-03-19T23:58:44.297Z,42.80
